Kezdőlap
METAR-TAF:

METAR-TAF

Repülőterek :

Rosecrans Memorial Airport

Saint Joseph, Missouri, Amerikai Egyesült Államok

földrajzi szélesség: 39-46-05N, földrajzi hosszúság: 094-54-33W, magasság: 251 m

Jelenlegi meteorológiai megfigyelések

A jelentés 23 perccel ezelõtt készült, 03:53 UTC
Déli szél 13 kt
Hőmérséklet 23°C
Páratartalom 36%
Légköri nyomás 1009 hPa
Látótávolság: 16.1 km
Derült ég

METAR: KSTJ 140353Z AUTO 19013KT 10SM CLR 23/07 A2979 RMK AO2 SLP080 T02330067

Idő: 23:16 (04:16 UTC)

Előrejelzés

A jelentés 4 órával és 56 perccel ezelõtt készült, 23:20 UTC
Az előrejelzés 14-én 00 óra UTC és 14-én 24 óra UTC között érvényes
Dél-délnyugati szél 16 kt széllökések: 26 kt
Látótávolság: 10 km
Szórványos felhőzet 15000 lábon
14-én 0200 órától UTC szerint
Dél-délnyugati szél 10 kt
Látótávolság: 10 km
Derült ég

TAF: KSTJ 132320Z 1400/1424 20016G26KT P6SM SCT150 FM140200 20010KT P6SM SKC

Meteorológiai megfigyelések és előrejelzések több, mint 4000 repülőtéren (METAR és TAF jelentéseket).

A térképen piros és sárga pontok jelzik az elérhető meteorológiai állomásokat.

Mozgassa az egeret a pont fölött, hogy megjelenjen az állomás neve.

Azután kattintson az időjárási megfigyelések és előrejelzések megtekintéséhez.

A térkép megváltoztatása: kattintson a fekete keresztel jelölt zöld gombra ráközelítéshez, a vonallal jelölt zöld gombra távolításhoz, vagy a zöld nyilakra a szomszédos térképek eléréséhez.


METAR-TAF: